createdAt,value
2018-04-26T00:01:19.922Z,48.70
2018-04-26T00:03:50.856Z,48.30
2018-04-26T00:06:21.474Z,48.10
2018-04-26T00:08:51.833Z,47.80
2018-04-26T00:11:22.280Z,47.90
2018-04-26T00:13:53.119Z,48.50
2018-04-26T00:16:23.926Z,48.70
2018-04-26T00:18:54.114Z,49.30
2018-04-26T00:21:24.692Z,49.30
2018-04-26T00:23:55.119Z,49.40
2018-04-26T00:26:25.348Z,48.80
2018-04-26T00:28:55.868Z,49.40
2018-04-26T00:31:26.356Z,49.40
2018-04-26T00:33:56.687Z,50.20
2018-04-26T00:36:27.118Z,49.90
2018-04-26T00:38:57.384Z,51.40
2018-04-26T00:41:27.780Z,51.10
2018-04-26T00:43:58.260Z,50.40
2018-04-26T00:46:29.562Z,50.50
2018-04-26T00:48:59.680Z,50.50
2018-04-26T00:51:38.280Z,50.90
2018-04-26T00:54:09.291Z,52.40
2018-04-26T00:56:40.692Z,52.00
2018-04-26T00:59:10.939Z,52.00
2018-04-26T01:01:41.120Z,53.60
2018-04-26T01:04:11.988Z,53.20
2018-04-26T01:06:42.563Z,51.50
2018-04-26T01:09:13.981Z,52.00
2018-04-26T01:11:45.039Z,53.00
2018-04-26T01:14:16.217Z,52.80
2018-04-26T01:16:46.943Z,52.40
2018-04-26T01:19:17.201Z,52.20
2018-04-26T01:21:47.456Z,51.40
2018-04-26T01:24:19.318Z,52.40
2018-04-26T01:26:50.483Z,52.40
2018-04-26T01:29:21.371Z,52.40
2018-04-26T01:31:52.598Z,53.30
2018-04-26T01:34:22.971Z,53.30
2018-04-26T01:38:02.927Z,54.10
2018-04-26T01:40:34.040Z,53.60
2018-04-26T01:43:04.399Z,53.50
2018-04-26T01:45:35.476Z,53.60
2018-04-26T01:48:05.758Z,53.60
2018-04-26T01:50:37.444Z,52.40
2018-04-26T01:53:07.668Z,52.40
2018-04-26T01:55:38.452Z,51.90
2018-04-26T01:58:09.641Z,51.50
2018-04-26T02:00:40.672Z,51.40
2018-04-26T02:03:11.917Z,51.10
2018-04-26T02:05:42.819Z,51.10
2018-04-26T02:08:14.141Z,51.10
2018-04-26T02:10:44.636Z,50.60
2018-04-26T02:13:15.475Z,51.40
2018-04-26T02:15:45.704Z,52.00
2018-04-26T02:18:16.663Z,53.00
2018-04-26T02:20:47.313Z,53.00
2018-04-26T02:23:18.338Z,53.90
2018-04-26T02:25:49.971Z,54.60
2018-04-26T02:28:21.139Z,52.70
2018-04-26T02:30:51.730Z,52.50
2018-04-26T02:33:22.744Z,52.60
2018-04-26T02:35:53.214Z,53.40
2018-04-26T02:38:23.567Z,53.90
2018-04-26T02:40:54.981Z,53.90
2018-04-26T02:43:26.248Z,53.60
2018-04-26T02:45:56.684Z,53.30
2018-04-26T02:48:27.220Z,53.40
2018-04-26T02:50:57.755Z,54.60
2018-04-26T02:53:28.718Z,54.70
2018-04-26T02:56:00.667Z,54.00
2018-04-26T02:58:31.133Z,53.90
2018-04-26T03:01:01.833Z,54.30
2018-04-26T03:03:32.205Z,55.10
2018-04-26T03:06:02.468Z,56.10
2018-04-26T03:08:33.500Z,57.50
2018-04-26T03:11:03.728Z,57.30
2018-04-26T03:13:34.082Z,57.40
2018-04-26T03:16:05.948Z,57.00
2018-04-26T03:18:36.229Z,56.40
2018-04-26T03:21:07.064Z,56.90
2018-04-26T03:23:37.621Z,56.50
2018-04-26T03:26:08.248Z,57.50
2018-04-26T03:28:38.988Z,58.20
2018-04-26T03:31:09.463Z,59.10
2018-04-26T03:33:39.763Z,59.00
2018-04-26T03:36:10.944Z,58.40
2018-04-26T03:38:41.981Z,58.40
2018-04-26T03:41:12.933Z,58.30
2018-04-26T03:43:43.877Z,58.20
2018-04-26T03:46:14.350Z,59.60
2018-04-26T03:48:45.908Z,57.70
2018-04-26T03:51:17.079Z,57.00
2018-04-26T03:53:47.607Z,57.70
2018-04-26T03:56:18.348Z,57.80
2018-04-26T03:58:49.203Z,57.40
2018-04-26T04:03:31.811Z,56.10
2018-04-26T04:06:04.067Z,56.10
2018-04-26T04:08:35.420Z,56.30
2018-04-26T04:11:05.994Z,56.20
2018-04-26T04:13:36.663Z,55.60
2018-04-26T04:16:07.827Z,57.50
2018-04-26T04:18:38.304Z,57.40
2018-04-26T04:21:09.629Z,57.90
2018-04-26T04:23:40.856Z,58.00
2018-04-26T04:26:11.108Z,57.20
2018-04-26T04:28:41.598Z,56.30
2018-04-26T04:31:12.348Z,56.30
2018-04-26T04:33:43.222Z,56.60
2018-04-26T04:36:13.668Z,56.30
2018-04-26T04:38:44.270Z,56.70
2018-04-26T04:41:14.560Z,57.50
2018-04-26T04:43:44.930Z,57.80
2018-04-26T04:46:15.513Z,58.20
2018-04-26T04:48:46.094Z,58.10
2018-04-26T04:51:16.595Z,57.70
2018-04-26T04:53:47.592Z,57.20
2018-04-26T04:56:19.387Z,57.50
2018-04-26T04:58:50.042Z,57.60
2018-04-26T05:01:24.323Z,56.90
2018-04-26T05:03:54.912Z,57.00
2018-04-26T05:06:26.083Z,56.50
2018-04-26T05:08:56.904Z,56.40
2018-04-26T05:11:30.367Z,56.90
2018-04-26T05:14:05.218Z,56.90
2018-04-26T05:16:36.881Z,56.70
2018-04-26T05:19:09.073Z,56.60
2018-04-26T05:21:40.301Z,56.60
2018-04-26T05:24:11.808Z,55.80
2018-04-26T05:26:43.196Z,55.80
2018-04-26T05:29:14.352Z,54.40
2018-04-26T05:31:45.915Z,54.00
2018-04-26T05:34:19.424Z,54.70
2018-04-26T05:36:52.860Z,54.70
2018-04-26T05:39:23.647Z,55.40
2018-04-26T05:41:59.059Z,52.30
2018-04-26T05:44:33.889Z,52.30
2018-04-26T05:47:05.551Z,49.30
2018-04-26T05:49:36.129Z,48.00
2018-04-26T05:52:08.166Z,46.00
2018-04-26T05:54:40.589Z,47.70
2018-04-26T05:57:20.475Z,47.60
2018-04-26T05:59:52.351Z,50.40
2018-04-26T06:02:23.493Z,50.50
2018-04-26T06:04:54.105Z,53.50
2018-04-26T06:07:24.918Z,54.30
2018-04-26T06:09:55.640Z,56.80
2018-04-26T06:12:30.140Z,57.10
2018-04-26T06:15:01.936Z,56.80
2018-04-26T06:17:36.850Z,56.00
2018-04-26T06:20:10.571Z,54.90
2018-04-26T06:22:42.397Z,55.20
2018-04-26T06:25:13.105Z,54.40
2018-04-26T06:27:44.180Z,55.00
2018-04-26T06:30:15.138Z,54.90
2018-04-26T06:32:45.711Z,56.20
2018-04-26T06:35:16.868Z,56.60
2018-04-26T06:37:50.036Z,55.60
2018-04-26T06:40:21.945Z,56.00
2018-04-26T06:42:53.905Z,55.90
2018-04-26T06:45:24.811Z,55.20
2018-04-26T06:47:56.262Z,53.30
2018-04-26T06:50:27.880Z,53.30
2018-04-26T06:52:58.297Z,55.00
2018-04-26T06:55:28.620Z,57.00
2018-04-26T06:57:59.703Z,56.40
2018-04-26T07:00:31.451Z,57.30
2018-04-26T07:03:02.755Z,57.60
2018-04-26T07:05:35.157Z,57.60
2018-04-26T07:08:07.796Z,56.70
2018-04-26T07:10:38.725Z,56.60
2018-04-26T07:13:10.291Z,56.30
2018-04-26T07:15:41.761Z,54.70
2018-04-26T07:18:12.837Z,54.30
2018-04-26T07:20:44.763Z,55.10
2018-04-26T07:23:15.391Z,55.10
2018-04-26T07:25:46.266Z,53.10
2018-04-26T07:28:17.247Z,51.60
2018-04-26T07:30:48.255Z,51.00
2018-04-26T07:33:18.676Z,51.90
2018-04-26T07:35:50.945Z,50.80
2018-04-26T07:38:22.906Z,49.80
2018-04-26T07:40:55.138Z,49.70
2018-04-26T07:43:25.995Z,48.70
2018-04-26T07:45:56.623Z,49.80
2018-04-26T07:48:29.589Z,51.40
2018-04-26T07:51:01.086Z,51.40
2018-04-26T07:53:32.453Z,50.70
2018-04-26T07:56:03.642Z,51.70
2018-04-26T07:58:34.278Z,51.70
2018-04-26T08:01:06.460Z,52.20
2018-04-26T08:03:38.509Z,49.70
2018-04-26T08:06:11.682Z,49.80
2018-04-26T08:08:46.091Z,50.60
2018-04-26T08:11:17.590Z,47.80
2018-04-26T08:14:51.695Z,47.10
2018-04-26T08:17:22.752Z,47.70
2018-04-26T08:19:54.619Z,47.40
2018-04-26T08:22:26.025Z,44.70
2018-04-26T08:24:59.474Z,44.70
2018-04-26T08:27:34.724Z,44.90
2018-04-26T08:30:07.037Z,44.70
2018-04-26T08:32:38.354Z,44.70
2018-04-26T08:35:10.241Z,44.60
2018-04-26T08:37:41.376Z,45.20
2018-04-26T08:40:12.424Z,44.40
2018-04-26T08:42:48.166Z,45.00
2018-04-26T08:45:25.503Z,46.00
2018-04-26T08:48:01.639Z,46.30
2018-04-26T08:50:48.206Z,46.40
2018-04-26T08:53:36.220Z,46.10
2018-04-26T08:56:13.201Z,46.10
2018-04-26T08:58:51.459Z,43.40
2018-04-26T09:01:25.645Z,43.40
2018-04-26T09:04:01.960Z,44.70
2018-04-26T09:06:35.240Z,45.60
2018-04-26T09:09:10.671Z,45.10
2018-04-26T09:12:02.487Z,44.20
2018-04-26T09:14:44.686Z,43.60
2018-04-26T09:20:15.504Z,42.20
2018-04-26T09:22:56.221Z,46.90
2018-04-26T09:25:33.112Z,47.40
2018-04-26T09:28:12.348Z,42.90
2018-04-26T09:30:47.586Z,42.80
2018-04-26T09:33:34.438Z,42.80
2018-04-26T09:36:07.204Z,43.40
2018-04-26T09:38:42.818Z,44.10
2018-04-26T09:41:22.512Z,44.00
2018-04-26T09:43:53.293Z,43.60
2018-04-26T09:46:23.808Z,43.30
2018-04-26T09:48:55.607Z,42.70
2018-04-26T09:51:28.456Z,42.80
2018-04-26T09:53:59.818Z,42.70
2018-04-26T09:56:30.944Z,43.40
2018-04-26T09:59:03.101Z,43.30
2018-04-26T10:01:36.683Z,43.20
2018-04-26T10:04:11.317Z,43.10
2018-04-26T10:06:46.870Z,40.50
2018-04-26T10:09:18.419Z,41.50
2018-04-26T10:11:50.202Z,41.10
2018-04-26T10:14:21.744Z,43.80
2018-04-26T10:16:53.152Z,44.10
2018-04-26T10:19:26.315Z,45.30
2018-04-26T10:21:58.579Z,45.00
2018-04-26T10:24:29.357Z,46.20
2018-04-26T10:27:01.142Z,46.30
2018-04-26T10:29:35.157Z,45.50
2018-04-26T10:32:07.214Z,45.90
2018-04-26T10:34:39.447Z,46.30
2018-04-26T10:37:11.377Z,46.30
2018-04-26T10:39:43.634Z,45.60
2018-04-26T10:42:17.516Z,44.80
2018-04-26T10:44:49.677Z,44.90
2018-04-26T10:47:22.993Z,41.80
2018-04-26T10:49:55.106Z,41.80
2018-04-26T10:52:27.632Z,41.80
2018-04-26T10:54:59.745Z,40.20
2018-04-26T10:57:31.438Z,40.10
2018-04-26T11:00:04.436Z,38.20
2018-04-26T11:02:39.039Z,38.30
2018-04-26T11:05:10.016Z,37.90
2018-04-26T11:07:48.004Z,37.50
2018-04-26T11:10:27.961Z,37.10
2018-04-26T11:13:03.438Z,37.00
2018-04-26T11:15:36.518Z,36.30
2018-04-26T11:18:10.415Z,37.40
2018-04-26T11:20:42.889Z,39.60
2018-04-26T11:23:14.886Z,39.60
2018-04-26T11:25:45.516Z,39.00
2018-04-26T11:28:17.049Z,37.00
2018-04-26T11:30:47.796Z,36.40
2018-04-26T11:33:20.186Z,36.60
2018-04-26T11:35:57.222Z,35.70
2018-04-26T11:38:28.836Z,34.90
2018-04-26T11:41:00.425Z,34.90
2018-04-26T11:43:33.968Z,36.00
2018-04-26T11:46:08.838Z,36.10
2018-04-26T11:48:39.542Z,35.50
2018-04-26T11:51:09.902Z,35.40
2018-04-26T11:53:41.261Z,32.60
2018-04-26T11:56:12.692Z,34.80
2018-04-26T11:58:44.174Z,34.90
2018-04-26T12:01:15.994Z,34.60
2018-04-26T12:03:48.090Z,34.40
2018-04-26T12:06:20.046Z,34.90
2018-04-26T12:08:52.911Z,36.40
2018-04-26T12:11:24.731Z,36.50
2018-04-26T12:13:55.626Z,37.20
2018-04-26T12:16:27.777Z,36.30
2018-04-26T12:18:59.594Z,36.30
2018-04-26T12:21:31.499Z,36.10
2018-04-26T12:24:02.741Z,34.70
2018-04-26T12:26:35.311Z,34.70
2018-04-26T12:29:09.341Z,34.70
2018-04-26T12:31:40.902Z,35.10
2018-04-26T12:34:12.578Z,34.60
2018-04-26T12:36:43.252Z,34.40
2018-04-26T12:39:24.098Z,34.50
2018-04-26T12:41:55.880Z,33.10
2018-04-26T12:44:27.260Z,33.10
2018-04-26T12:46:57.888Z,34.30
2018-04-26T12:49:28.823Z,34.70
2018-04-26T12:51:59.490Z,35.40
2018-04-26T12:54:31.176Z,34.10
2018-04-26T12:57:01.927Z,34.10
2018-04-26T12:59:34.157Z,33.70
2018-04-26T13:02:05.773Z,31.80
2018-04-26T13:04:37.243Z,31.80
2018-04-26T13:07:13.560Z,30.80
2018-04-26T13:09:45.528Z,30.80
2018-04-26T13:12:16.299Z,31.60
2018-04-26T13:14:48.345Z,32.40
2018-04-26T13:17:22.268Z,32.40
2018-04-26T13:19:52.864Z,32.60
2018-04-26T13:22:24.079Z,33.30
2018-04-26T13:24:57.957Z,34.80
2018-04-26T13:27:29.326Z,35.20
2018-04-26T13:30:01.112Z,35.40
2018-04-26T13:32:45.632Z,35.30
2018-04-26T13:35:17.108Z,34.80
2018-04-26T13:37:48.183Z,34.70
2018-04-26T13:40:24.565Z,34.90
2018-04-26T13:42:55.563Z,33.10
2018-04-26T13:45:27.061Z,33.20
2018-04-26T13:47:59.353Z,34.40
2018-04-26T13:50:31.186Z,34.40
2018-04-26T13:53:02.874Z,35.40
2018-04-26T13:55:35.209Z,34.50
2018-04-26T13:58:07.450Z,34.60
2018-04-26T14:00:38.016Z,34.80
2018-04-26T14:03:09.535Z,34.50
2018-04-26T14:05:40.419Z,34.60
2018-04-26T14:08:11.901Z,35.00
2018-04-26T14:10:44.767Z,35.90
2018-04-26T14:13:17.695Z,35.90
2018-04-26T14:15:49.629Z,36.30
2018-04-26T14:18:21.136Z,36.60
2018-04-26T14:20:53.200Z,35.90
2018-04-26T14:23:24.965Z,35.90
2018-04-26T14:25:59.780Z,35.50
2018-04-26T14:28:30.882Z,35.70
2018-04-26T14:31:03.848Z,35.40
2018-04-26T14:33:35.718Z,34.60
2018-04-26T14:36:07.334Z,34.40
2018-04-26T14:38:40.808Z,34.50
2018-04-26T14:41:13.626Z,34.90
2018-04-26T14:43:46.606Z,35.30
2018-04-26T14:46:18.401Z,35.30
2018-04-26T14:48:50.374Z,35.50
2018-04-26T14:51:23.188Z,35.70
2018-04-26T14:53:57.329Z,36.30
2018-04-26T14:56:29.661Z,35.70
2018-04-26T14:59:02.100Z,35.60
2018-04-26T15:01:33.415Z,35.40
2018-04-26T15:04:05.189Z,36.90
2018-04-26T15:06:38.594Z,36.10
2018-04-26T15:09:09.854Z,36.00
2018-04-26T15:11:41.249Z,36.40
2018-04-26T15:14:13.352Z,37.00
2018-04-26T15:16:47.537Z,36.90
2018-04-26T15:19:18.457Z,37.00
2018-04-26T15:21:50.183Z,37.20
2018-04-26T15:24:21.064Z,37.60
2018-04-26T15:26:53.592Z,38.00
2018-04-26T15:29:25.349Z,38.40
2018-04-26T15:31:56.135Z,38.40
2018-04-26T15:34:27.559Z,38.80
2018-04-26T15:37:01.182Z,39.10
2018-04-26T15:39:32.258Z,38.40
2018-04-26T15:42:04.685Z,38.40
2018-04-26T15:44:35.701Z,39.10
2018-04-26T15:47:07.276Z,39.00
2018-04-26T15:49:38.748Z,39.00
2018-04-26T15:52:10.679Z,38.40
2018-04-26T15:54:51.600Z,39.40
2018-04-26T15:57:37.479Z,40.70
2018-04-26T16:01:23.929Z,37.90
2018-04-26T16:06:09.043Z,36.10
2018-04-26T16:08:53.214Z,36.50
2018-04-26T16:13:42.652Z,38.40
2018-04-26T16:16:26.272Z,37.50
2018-04-26T16:19:00.529Z,37.60
2018-04-26T16:21:41.333Z,37.60
2018-04-26T16:24:24.727Z,37.90
2018-04-26T16:27:09.545Z,37.30
2018-04-26T16:29:50.670Z,37.10
2018-04-26T16:36:36.979Z,37.90
2018-04-26T16:39:10.071Z,37.30
2018-04-26T16:41:42.975Z,36.50
2018-04-26T16:44:13.486Z,36.60
2018-04-26T16:46:44.402Z,37.00
2018-04-26T16:49:15.648Z,36.40
2018-04-26T16:51:46.844Z,36.40
2018-04-26T16:54:17.576Z,36.10
2018-04-26T16:56:48.059Z,35.70
2018-04-26T16:59:23.226Z,36.70
2018-04-26T17:01:53.720Z,36.80
2018-04-26T17:04:24.436Z,36.70
2018-04-26T17:06:54.946Z,36.70
2018-04-26T17:09:25.299Z,36.20
2018-04-26T17:11:56.865Z,36.60
2018-04-26T17:14:28.352Z,35.70
2018-04-26T17:16:58.997Z,36.60
2018-04-26T17:19:30.060Z,36.60
2018-04-26T17:22:00.824Z,36.40
2018-04-26T17:24:31.555Z,36.00
2018-04-26T17:27:02.675Z,35.60
2018-04-26T17:29:33.525Z,35.90
2018-04-26T17:32:04.985Z,35.70
2018-04-26T17:34:36.506Z,35.50
2018-04-26T17:37:07.164Z,35.30
2018-04-26T17:39:38.860Z,36.20
2018-04-26T17:42:09.684Z,36.90
2018-04-26T17:44:42.393Z,39.60
2018-04-26T17:47:13.785Z,41.00
2018-04-26T17:49:44.656Z,41.00
2018-04-26T17:52:15.853Z,42.50
2018-04-26T17:54:48.717Z,42.50
2018-04-26T17:57:20.452Z,42.30
2018-04-26T17:59:52.545Z,42.00
2018-04-26T18:02:23.790Z,41.70
2018-04-26T18:04:56.489Z,40.40
2018-04-26T18:07:28.125Z,40.80
2018-04-26T18:10:01.586Z,41.00
2018-04-26T18:12:35.016Z,42.00
2018-04-26T18:15:06.778Z,42.60
2018-04-26T18:17:38.735Z,44.90
2018-04-26T18:20:11.651Z,45.80
2018-04-26T18:22:44.600Z,46.00
2018-04-26T18:25:15.185Z,46.40
2018-04-26T18:27:48.291Z,45.80
2018-04-26T18:30:20.282Z,46.10
2018-04-26T18:32:51.075Z,46.00
2018-04-26T18:35:23.161Z,46.20
2018-04-26T18:37:55.542Z,45.40
2018-04-26T18:40:26.898Z,45.40
2018-04-26T18:42:57.885Z,45.60
2018-04-26T18:45:30.543Z,47.70
2018-04-26T18:48:03.778Z,49.40
2018-04-26T18:50:36.051Z,49.90
2018-04-26T18:53:07.823Z,50.00
2018-04-26T18:55:51.238Z,49.90
2018-04-26T18:58:23.966Z,50.20
2018-04-26T19:00:54.418Z,50.20
2018-04-26T19:03:24.927Z,50.60
2018-04-26T19:05:55.338Z,50.90
2018-04-26T19:08:25.757Z,50.90
2018-04-26T19:10:56.606Z,51.30
2018-04-26T19:13:27.325Z,51.60
2018-04-26T19:15:57.702Z,51.80
2018-04-26T19:18:28.021Z,51.80
2018-04-26T19:20:58.520Z,52.20
2018-04-26T19:23:29.284Z,52.60
2018-04-26T19:25:59.564Z,52.90
2018-04-26T19:28:30.240Z,52.30
2018-04-26T19:31:01.059Z,53.70
2018-04-26T19:33:31.714Z,54.20
2018-04-26T19:36:02.319Z,54.50
2018-04-26T19:38:33.187Z,54.70
2018-04-26T19:41:03.953Z,54.90
2018-04-26T19:43:35.751Z,54.70
2018-04-26T19:46:06.791Z,54.70
2018-04-26T19:48:37.493Z,54.40
2018-04-26T19:51:08.524Z,54.60
2018-04-26T19:53:39.770Z,55.10
2018-04-26T19:56:11.076Z,55.20
2018-04-26T19:58:41.694Z,55.20
2018-04-26T20:01:12.255Z,55.30
2018-04-26T20:03:43.105Z,55.60
2018-04-26T20:06:14.390Z,55.00
2018-04-26T20:08:44.929Z,55.00
2018-04-26T20:11:17.450Z,55.10
2018-04-26T20:13:47.959Z,54.90
2018-04-26T20:16:19.324Z,55.10
2018-04-26T20:18:49.856Z,55.00
2018-04-26T20:21:20.225Z,55.00
2018-04-26T20:23:51.207Z,56.00
2018-04-26T20:26:21.596Z,54.10
2018-04-26T20:28:52.133Z,54.70
2018-04-26T20:31:22.971Z,54.90
2018-04-26T20:33:59.125Z,55.50
2018-04-26T20:36:29.442Z,55.40
2018-04-26T20:38:59.938Z,55.20
2018-04-26T20:41:39.840Z,56.10
2018-04-26T20:44:11.539Z,56.00
2018-04-26T20:46:43.043Z,55.60
2018-04-26T20:49:13.758Z,56.50
2018-04-26T20:51:44.471Z,55.30
2018-04-26T20:54:15.302Z,55.00
2018-04-26T20:56:46.605Z,54.60
2018-04-26T20:59:17.213Z,54.60
2018-04-26T21:01:47.599Z,54.50
2018-04-26T21:04:19.238Z,55.00
2018-04-26T21:06:49.804Z,55.00
2018-04-26T21:09:20.253Z,54.90
2018-04-26T21:11:51.212Z,54.60
2018-04-26T21:14:22.212Z,54.50
2018-04-26T21:16:53.769Z,54.80
2018-04-26T21:19:24.816Z,54.40
2018-04-26T21:21:55.372Z,55.20
2018-04-26T21:24:26.743Z,55.00
2018-04-26T21:26:57.167Z,54.70
2018-04-26T21:29:27.840Z,54.80
2018-04-26T21:31:58.575Z,55.20
2018-04-26T21:34:29.132Z,55.10
2018-04-26T21:36:59.681Z,54.80
2018-04-26T21:39:30.557Z,54.60
2018-04-26T21:42:02.152Z,54.50
2018-04-26T21:44:32.594Z,54.50
2018-04-26T21:47:02.961Z,54.50
2018-04-26T21:49:33.172Z,54.60
2018-04-26T21:52:08.695Z,54.60
2018-04-26T21:54:44.261Z,54.50
2018-04-26T21:57:19.767Z,54.40
2018-04-26T21:59:55.261Z,54.50
2018-04-26T22:02:24.435Z,54.80
2018-04-26T22:04:57.411Z,55.00
2018-04-26T22:07:28.291Z,55.60
2018-04-26T22:09:59.620Z,55.40
2018-04-26T22:12:30.608Z,55.40
2018-04-26T22:15:02.015Z,55.00
2018-04-26T22:17:32.408Z,54.60
2018-04-26T22:20:02.846Z,55.10
2018-04-26T22:22:33.391Z,55.00
2018-04-26T22:25:04.344Z,54.60
2018-04-26T22:27:35.274Z,55.40
2018-04-26T22:30:05.953Z,55.60
2018-04-26T22:32:37.089Z,56.00
2018-04-26T22:35:07.726Z,56.20
2018-04-26T22:37:38.474Z,56.70
2018-04-26T22:40:09.537Z,56.30
2018-04-26T22:42:40.215Z,57.00
2018-04-26T22:45:11.347Z,55.40
2018-04-26T22:47:42.501Z,56.60
2018-04-26T22:50:13.034Z,55.50
2018-04-26T22:52:44.793Z,55.70
2018-04-26T22:55:15.548Z,55.70
2018-04-26T22:57:45.974Z,55.10
2018-04-26T23:00:17.199Z,55.10
2018-04-26T23:02:48.786Z,55.40
2018-04-26T23:05:19.432Z,55.40
2018-04-26T23:07:50.022Z,55.20
2018-04-26T23:10:20.267Z,55.40
2018-04-26T23:12:52.254Z,55.80
2018-04-26T23:15:22.967Z,55.20
2018-04-26T23:17:54.028Z,55.10
2018-04-26T23:20:24.909Z,55.50
2018-04-26T23:22:56.180Z,55.60
2018-04-26T23:25:26.715Z,55.60
2018-04-26T23:27:57.305Z,55.80
2018-04-26T23:30:28.626Z,56.90
2018-04-26T23:32:59.424Z,56.90
2018-04-26T23:35:29.992Z,56.90
2018-04-26T23:38:00.573Z,57.20
2018-04-26T23:40:31.542Z,57.00
2018-04-26T23:43:02.270Z,57.20
2018-04-26T23:45:33.241Z,57.10
2018-04-26T23:48:04.076Z,57.00
2018-04-26T23:50:34.745Z,57.40
2018-04-26T23:53:05.991Z,57.50
2018-04-26T23:55:36.695Z,57.50
2018-04-26T23:58:07.143Z,57.70
